sensor_id;sensor_type;location;lat;lon;timestamp;P1;durP1;ratioP1;P2;durP2;ratioP2
18425;SDS011;9340;48.756;9.226;2023-07-31T00:17:14;4.10;;;2.90;;
18425;SDS011;9340;48.756;9.226;2023-07-31T00:19:40;3.60;;;2.93;;
18425;SDS011;9340;48.756;9.226;2023-07-31T00:22:07;3.57;;;2.67;;
18425;SDS011;9340;48.756;9.226;2023-07-31T00:24:34;3.27;;;2.97;;
18425;SDS011;9340;48.756;9.226;2023-07-31T00:27:00;3.70;;;2.80;;
18425;SDS011;9340;48.756;9.226;2023-07-31T00:29:27;3.63;;;2.87;;
18425;SDS011;9340;48.756;9.226;2023-07-31T00:31:55;4.70;;;3.20;;
18425;SDS011;9340;48.756;9.226;2023-07-31T00:34:22;4.73;;;2.47;;
18425;SDS011;9340;48.756;9.226;2023-07-31T00:36:48;4.70;;;2.93;;
18425;SDS011;9340;48.756;9.226;2023-07-31T00:39:15;5.00;;;2.77;;
18425;SDS011;9340;48.756;9.226;2023-07-31T00:41:42;5.83;;;3.30;;
18425;SDS011;9340;48.756;9.226;2023-07-31T00:44:08;6.10;;;3.57;;
18425;SDS011;9340;48.756;9.226;2023-07-31T00:46:35;5.37;;;3.53;;
18425;SDS011;9340;48.756;9.226;2023-07-31T00:49:04;5.60;;;3.30;;
18425;SDS011;9340;48.756;9.226;2023-07-31T00:51:31;5.07;;;2.90;;
18425;SDS011;9340;48.756;9.226;2023-07-31T00:53:58;5.40;;;3.27;;
18425;SDS011;9340;48.756;9.226;2023-07-31T00:56:25;4.40;;;2.60;;
18425;SDS011;9340;48.756;9.226;2023-07-31T00:58:53;4.43;;;3.70;;
18425;SDS011;9340;48.756;9.226;2023-07-31T01:01:21;4.17;;;2.60;;
18425;SDS011;9340;48.756;9.226;2023-07-31T01:03:47;4.40;;;3.10;;
18425;SDS011;9340;48.756;9.226;2023-07-31T01:06:20;6.17;;;3.00;;
18425;SDS011;9340;48.756;9.226;2023-07-31T01:08:58;5.30;;;3.33;;
18425;SDS011;9340;48.756;9.226;2023-07-31T01:11:28;4.97;;;2.60;;
18425;SDS011;9340;48.756;9.226;2023-07-31T01:13:56;2.67;;;2.40;;
18425;SDS011;9340;48.756;9.226;2023-07-31T01:16:24;3.63;;;3.00;;
18425;SDS011;9340;48.756;9.226;2023-07-31T01:18:51;5.27;;;3.00;;
18425;SDS011;9340;48.756;9.226;2023-07-31T01:21:38;3.20;;;2.90;;
18425;SDS011;9340;48.756;9.226;2023-07-31T01:24:23;3.40;;;2.63;;
18425;SDS011;9340;48.756;9.226;2023-07-31T01:26:57;6.07;;;3.20;;
18425;SDS011;9340;48.756;9.226;2023-07-31T01:29:29;4.73;;;3.03;;
18425;SDS011;9340;48.756;9.226;2023-07-31T01:32:01;4.83;;;3.40;;
18425;SDS011;9340;48.756;9.226;2023-07-31T01:34:28;6.63;;;3.07;;
18425;SDS011;9340;48.756;9.226;2023-07-31T01:36:56;7.13;;;3.40;;
18425;SDS011;9340;48.756;9.226;2023-07-31T01:39:23;6.20;;;3.33;;
18425;SDS011;9340;48.756;9.226;2023-07-31T01:41:50;4.30;;;3.20;;
18425;SDS011;9340;48.756;9.226;2023-07-31T01:44:18;5.77;;;3.43;;
18425;SDS011;9340;48.756;9.226;2023-07-31T01:46:45;3.80;;;3.20;;
18425;SDS011;9340;48.756;9.226;2023-07-31T01:49:11;5.40;;;3.20;;
18425;SDS011;9340;48.756;9.226;2023-07-31T01:51:39;3.93;;;2.90;;
18425;SDS011;9340;48.756;9.226;2023-07-31T01:54:05;6.30;;;3.30;;
18425;SDS011;9340;48.756;9.226;2023-07-31T01:56:32;4.83;;;3.37;;
18425;SDS011;9340;48.756;9.226;2023-07-31T01:58:58;4.80;;;2.87;;
18425;SDS011;9340;48.756;9.226;2023-07-31T02:01:26;5.87;;;3.33;;
18425;SDS011;9340;48.756;9.226;2023-07-31T02:03:53;3.90;;;3.07;;
18425;SDS011;9340;48.756;9.226;2023-07-31T02:06:20;6.03;;;3.63;;
18425;SDS011;9340;48.756;9.226;2023-07-31T02:08:47;5.77;;;3.23;;
18425;SDS011;9340;48.756;9.226;2023-07-31T02:11:14;3.70;;;3.30;;
18425;SDS011;9340;48.756;9.226;2023-07-31T02:13:40;7.03;;;3.70;;
18425;SDS011;9340;48.756;9.226;2023-07-31T02:16:07;9.13;;;3.30;;
18425;SDS011;9340;48.756;9.226;2023-07-31T02:18:35;9.43;;;3.90;;
18425;SDS011;9340;48.756;9.226;2023-07-31T02:21:02;3.83;;;3.23;;
18425;SDS011;9340;48.756;9.226;2023-07-31T02:23:28;3.87;;;3.27;;
18425;SDS011;9340;48.756;9.226;2023-07-31T02:25:55;4.33;;;3.50;;
18425;SDS011;9340;48.756;9.226;2023-07-31T02:28:22;5.50;;;3.60;;
18425;SDS011;9340;48.756;9.226;2023-07-31T02:30:49;4.13;;;3.73;;
18425;SDS011;9340;48.756;9.226;2023-07-31T02:33:16;4.70;;;2.97;;
18425;SDS011;9340;48.756;9.226;2023-07-31T02:35:44;4.67;;;3.33;;
18425;SDS011;9340;48.756;9.226;2023-07-31T02:38:11;3.07;;;2.70;;
18425;SDS011;9340;48.756;9.226;2023-07-31T02:40:38;3.03;;;2.80;;
18425;SDS011;9340;48.756;9.226;2023-07-31T02:43:06;4.00;;;3.20;;
18425;SDS011;9340;48.756;9.226;2023-07-31T02:45:32;3.97;;;3.10;;
18425;SDS011;9340;48.756;9.226;2023-07-31T02:47:59;5.07;;;3.30;;
18425;SDS011;9340;48.756;9.226;2023-07-31T02:50:26;4.57;;;3.03;;
18425;SDS011;9340;48.756;9.226;2023-07-31T02:52:55;3.93;;;3.00;;
18425;SDS011;9340;48.756;9.226;2023-07-31T02:55:21;4.27;;;3.10;;
18425;SDS011;9340;48.756;9.226;2023-07-31T02:57:48;5.03;;;3.10;;
18425;SDS011;9340;48.756;9.226;2023-07-31T03:00:17;4.33;;;3.03;;
18425;SDS011;9340;48.756;9.226;2023-07-31T03:02:43;4.87;;;2.57;;
18425;SDS011;9340;48.756;9.226;2023-07-31T03:05:11;5.63;;;3.23;;
18425;SDS011;9340;48.756;9.226;2023-07-31T03:07:38;3.83;;;3.10;;
18425;SDS011;9340;48.756;9.226;2023-07-31T03:10:06;4.13;;;3.03;;
18425;SDS011;9340;48.756;9.226;2023-07-31T03:12:34;3.73;;;3.03;;
18425;SDS011;9340;48.756;9.226;2023-07-31T03:15:00;6.53;;;3.23;;
18425;SDS011;9340;48.756;9.226;2023-07-31T03:17:27;5.30;;;3.03;;
18425;SDS011;9340;48.756;9.226;2023-07-31T03:19:54;4.47;;;2.93;;
18425;SDS011;9340;48.756;9.226;2023-07-31T03:22:20;3.80;;;3.03;;
18425;SDS011;9340;48.756;9.226;2023-07-31T03:24:47;4.50;;;3.20;;
18425;SDS011;9340;48.756;9.226;2023-07-31T03:27:15;8.03;;;3.60;;
18425;SDS011;9340;48.756;9.226;2023-07-31T03:29:42;4.63;;;3.23;;
18425;SDS011;9340;48.756;9.226;2023-07-31T03:32:08;7.77;;;3.47;;
18425;SDS011;9340;48.756;9.226;2023-07-31T03:34:35;5.60;;;3.40;;
18425;SDS011;9340;48.756;9.226;2023-07-31T03:37:02;7.20;;;3.67;;
18425;SDS011;9340;48.756;9.226;2023-07-31T03:39:30;5.13;;;3.47;;
18425;SDS011;9340;48.756;9.226;2023-07-31T03:41:56;7.20;;;3.57;;
18425;SDS011;9340;48.756;9.226;2023-07-31T03:44:24;3.27;;;2.97;;
18425;SDS011;9340;48.756;9.226;2023-07-31T03:46:51;5.07;;;3.70;;
18425;SDS011;9340;48.756;9.226;2023-07-31T03:49:18;3.97;;;2.97;;
18425;SDS011;9340;48.756;9.226;2023-07-31T03:51:44;4.80;;;3.63;;
18425;SDS011;9340;48.756;9.226;2023-07-31T03:54:11;5.60;;;3.13;;
18425;SDS011;9340;48.756;9.226;2023-07-31T03:56:38;3.53;;;3.10;;
18425;SDS011;9340;48.756;9.226;2023-07-31T03:59:04;4.33;;;3.37;;
18425;SDS011;9340;48.756;9.226;2023-07-31T04:01:32;5.97;;;3.20;;
18425;SDS011;9340;48.756;9.226;2023-07-31T04:03:59;5.73;;;3.20;;
18425;SDS011;9340;48.756;9.226;2023-07-31T04:06:26;4.73;;;3.17;;
18425;SDS011;9340;48.756;9.226;2023-07-31T04:08:52;3.53;;;2.80;;
18425;SDS011;9340;48.756;9.226;2023-07-31T04:11:19;2.77;;;2.40;;
18425;SDS011;9340;48.756;9.226;2023-07-31T04:13:46;5.73;;;2.80;;
18425;SDS011;9340;48.756;9.226;2023-07-31T04:16:12;4.23;;;2.90;;
18425;SDS011;9340;48.756;9.226;2023-07-31T04:18:40;6.57;;;2.97;;
18425;SDS011;9340;48.756;9.226;2023-07-31T04:21:07;3.87;;;2.50;;
18425;SDS011;9340;48.756;9.226;2023-07-31T04:23:35;3.70;;;2.60;;
18425;SDS011;9340;48.756;9.226;2023-07-31T04:26:01;5.03;;;2.83;;
18425;SDS011;9340;48.756;9.226;2023-07-31T04:28:28;5.00;;;2.80;;
18425;SDS011;9340;48.756;9.226;2023-07-31T04:30:56;3.00;;;2.67;;
18425;SDS011;9340;48.756;9.226;2023-07-31T04:33:23;7.77;;;2.60;;
18425;SDS011;9340;48.756;9.226;2023-07-31T04:35:52;4.30;;;2.67;;
18425;SDS011;9340;48.756;9.226;2023-07-31T04:38:19;4.50;;;2.73;;
18425;SDS011;9340;48.756;9.226;2023-07-31T04:40:47;4.77;;;2.97;;
18425;SDS011;9340;48.756;9.226;2023-07-31T04:43:13;3.97;;;2.67;;
18425;SDS011;9340;48.756;9.226;2023-07-31T04:45:41;3.57;;;2.43;;
18425;SDS011;9340;48.756;9.226;2023-07-31T04:48:10;5.80;;;2.90;;
18425;SDS011;9340;48.756;9.226;2023-07-31T04:50:37;6.67;;;2.80;;
18425;SDS011;9340;48.756;9.226;2023-07-31T04:53:05;5.60;;;2.57;;
18425;SDS011;9340;48.756;9.226;2023-07-31T04:55:32;2.40;;;2.20;;
18425;SDS011;9340;48.756;9.226;2023-07-31T04:57:58;2.53;;;2.27;;
18425;SDS011;9340;48.756;9.226;2023-07-31T05:00:25;2.37;;;2.03;;
18425;SDS011;9340;48.756;9.226;2023-07-31T05:02:52;3.13;;;2.10;;
18425;SDS011;9340;48.756;9.226;2023-07-31T05:05:19;4.00;;;2.20;;
18425;SDS011;9340;48.756;9.226;2023-07-31T05:07:45;3.73;;;2.80;;
18425;SDS011;9340;48.756;9.226;2023-07-31T05:10:13;2.80;;;2.40;;
18425;SDS011;9340;48.756;9.226;2023-07-31T05:12:40;3.10;;;2.60;;
18425;SDS011;9340;48.756;9.226;2023-07-31T05:15:07;3.10;;;2.42;;
18425;SDS011;9340;48.756;9.226;2023-07-31T05:17:34;2.50;;;2.25;;
18425;SDS011;9340;48.756;9.226;2023-07-31T05:20:01;2.63;;;2.33;;
18425;SDS011;9340;48.756;9.226;2023-07-31T05:22:28;4.23;;;2.43;;
18425;SDS011;9340;48.756;9.226;2023-07-31T05:24:55;3.70;;;3.00;;
18425;SDS011;9340;48.756;9.226;2023-07-31T05:27:23;3.08;;;2.28;;
18425;SDS011;9340;48.756;9.226;2023-07-31T05:29:49;3.55;;;2.67;;
18425;SDS011;9340;48.756;9.226;2023-07-31T05:32:16;3.33;;;2.55;;
18425;SDS011;9340;48.756;9.226;2023-07-31T05:34:43;3.10;;;2.35;;
18425;SDS011;9340;48.756;9.226;2023-07-31T05:37:10;3.58;;;2.47;;
18425;SDS011;9340;48.756;9.226;2023-07-31T05:39:37;4.00;;;2.60;;
18425;SDS011;9340;48.756;9.226;2023-07-31T05:42:04;3.13;;;2.55;;
18425;SDS011;9340;48.756;9.226;2023-07-31T05:44:32;2.83;;;2.40;;
18425;SDS011;9340;48.756;9.226;2023-07-31T05:46:59;3.92;;;2.50;;
18425;SDS011;9340;48.756;9.226;2023-07-31T05:49:25;5.15;;;2.60;;
18425;SDS011;9340;48.756;9.226;2023-07-31T05:51:52;3.17;;;1.90;;
18425;SDS011;9340;48.756;9.226;2023-07-31T05:54:19;3.88;;;2.63;;
18425;SDS011;9340;48.756;9.226;2023-07-31T05:56:45;2.22;;;2.03;;
18425;SDS011;9340;48.756;9.226;2023-07-31T05:59:12;3.17;;;2.42;;
18425;SDS011;9340;48.756;9.226;2023-07-31T06:01:40;5.10;;;2.58;;
18425;SDS011;9340;48.756;9.226;2023-07-31T06:04:07;3.45;;;2.22;;
18425;SDS011;9340;48.756;9.226;2023-07-31T06:06:34;3.28;;;2.13;;
18425;SDS011;9340;48.756;9.226;2023-07-31T06:09:01;3.25;;;2.47;;
18425;SDS011;9340;48.756;9.226;2023-07-31T06:11:28;5.55;;;2.45;;
18425;SDS011;9340;48.756;9.226;2023-07-31T06:13:55;3.17;;;2.40;;
18425;SDS011;9340;48.756;9.226;2023-07-31T06:16:22;2.30;;;2.03;;
18425;SDS011;9340;48.756;9.226;2023-07-31T06:18:50;3.03;;;2.50;;
18425;SDS011;9340;48.756;9.226;2023-07-31T06:21:16;3.80;;;2.05;;
18425;SDS011;9340;48.756;9.226;2023-07-31T06:23:43;3.95;;;2.38;;
18425;SDS011;9340;48.756;9.226;2023-07-31T06:26:10;3.22;;;2.10;;
18425;SDS011;9340;48.756;9.226;2023-07-31T06:28:36;3.75;;;2.47;;
18425;SDS011;9340;48.756;9.226;2023-07-31T06:31:03;3.38;;;2.47;;
18425;SDS011;9340;48.756;9.226;2023-07-31T06:33:30;3.92;;;2.20;;
18425;SDS011;9340;48.756;9.226;2023-07-31T06:35:58;3.63;;;2.40;;
18425;SDS011;9340;48.756;9.226;2023-07-31T06:38:25;2.28;;;2.08;;
18425;SDS011;9340;48.756;9.226;2023-07-31T06:40:52;3.78;;;2.40;;
18425;SDS011;9340;48.756;9.226;2023-07-31T06:43:19;5.05;;;2.15;;
18425;SDS011;9340;48.756;9.226;2023-07-31T06:45:46;4.15;;;2.63;;
18425;SDS011;9340;48.756;9.226;2023-07-31T06:48:15;2.80;;;2.35;;
18425;SDS011;9340;48.756;9.226;2023-07-31T06:50:41;3.38;;;2.40;;
18425;SDS011;9340;48.756;9.226;2023-07-31T06:53:09;2.63;;;2.20;;
18425;SDS011;9340;48.756;9.226;2023-07-31T06:55:36;3.17;;;2.50;;
18425;SDS011;9340;48.756;9.226;2023-07-31T06:58:03;4.93;;;2.20;;
18425;SDS011;9340;48.756;9.226;2023-07-31T07:00:30;2.75;;;2.20;;
18425;SDS011;9340;48.756;9.226;2023-07-31T07:02:57;4.57;;;2.38;;
18425;SDS011;9340;48.756;9.226;2023-07-31T07:05:24;7.05;;;2.60;;
18425;SDS011;9340;48.756;9.226;2023-07-31T07:07:50;4.05;;;2.30;;
18425;SDS011;9340;48.756;9.226;2023-07-31T07:10:19;3.90;;;2.33;;
18425;SDS011;9340;48.756;9.226;2023-07-31T07:12:45;4.70;;;2.60;;
18425;SDS011;9340;48.756;9.226;2023-07-31T07:15:12;3.67;;;2.40;;
18425;SDS011;9340;48.756;9.226;2023-07-31T07:17:39;3.88;;;2.60;;
18425;SDS011;9340;48.756;9.226;2023-07-31T07:20:06;3.92;;;2.78;;
18425;SDS011;9340;48.756;9.226;2023-07-31T07:22:34;4.30;;;2.45;;
18425;SDS011;9340;48.756;9.226;2023-07-31T07:25:00;4.43;;;2.53;;
18425;SDS011;9340;48.756;9.226;2023-07-31T07:27:28;5.97;;;2.72;;
18425;SDS011;9340;48.756;9.226;2023-07-31T07:29:56;4.00;;;2.40;;
18425;SDS011;9340;48.756;9.226;2023-07-31T07:32:22;5.40;;;2.63;;
18425;SDS011;9340;48.756;9.226;2023-07-31T07:34:49;3.10;;;2.63;;
18425;SDS011;9340;48.756;9.226;2023-07-31T07:37:16;2.70;;;2.20;;
18425;SDS011;9340;48.756;9.226;2023-07-31T07:39:43;5.95;;;2.88;;
18425;SDS011;9340;48.756;9.226;2023-07-31T07:42:10;3.38;;;2.40;;
18425;SDS011;9340;48.756;9.226;2023-07-31T07:44:38;5.95;;;2.45;;
18425;SDS011;9340;48.756;9.226;2023-07-31T07:47:05;4.22;;;2.60;;
18425;SDS011;9340;48.756;9.226;2023-07-31T07:49:32;4.90;;;2.72;;
18425;SDS011;9340;48.756;9.226;2023-07-31T07:51:59;4.22;;;2.80;;
18425;SDS011;9340;48.756;9.226;2023-07-31T07:54:25;3.28;;;2.67;;
18425;SDS011;9340;48.756;9.226;2023-07-31T07:56:52;3.00;;;2.50;;
18425;SDS011;9340;48.756;9.226;2023-07-31T07:59:19;3.90;;;2.85;;
18425;SDS011;9340;48.756;9.226;2023-07-31T08:01:47;3.75;;;2.72;;
18425;SDS011;9340;48.756;9.226;2023-07-31T08:04:14;3.95;;;2.60;;
18425;SDS011;9340;48.756;9.226;2023-07-31T08:06:40;4.35;;;2.67;;
18425;SDS011;9340;48.756;9.226;2023-07-31T08:09:07;4.43;;;2.70;;
18425;SDS011;9340;48.756;9.226;2023-07-31T08:11:34;5.38;;;2.90;;
18425;SDS011;9340;48.756;9.226;2023-07-31T08:14:01;4.60;;;2.45;;
18425;SDS011;9340;48.756;9.226;2023-07-31T08:16:27;3.83;;;2.80;;
18425;SDS011;9340;48.756;9.226;2023-07-31T08:18:55;4.32;;;3.03;;
18425;SDS011;9340;48.756;9.226;2023-07-31T08:21:22;6.20;;;3.40;;
18425;SDS011;9340;48.756;9.226;2023-07-31T08:23:49;5.45;;;3.10;;
18425;SDS011;9340;48.756;9.226;2023-07-31T08:26:16;4.80;;;3.20;;
18425;SDS011;9340;48.756;9.226;2023-07-31T08:28:43;3.53;;;2.80;;
18425;SDS011;9340;48.756;9.226;2023-07-31T08:31:10;3.15;;;2.78;;
18425;SDS011;9340;48.756;9.226;2023-07-31T08:33:37;3.70;;;2.75;;
18425;SDS011;9340;48.756;9.226;2023-07-31T08:36:06;4.47;;;3.30;;
18425;SDS011;9340;48.756;9.226;2023-07-31T08:38:33;2.92;;;2.63;;
18425;SDS011;9340;48.756;9.226;2023-07-31T08:40:59;6.30;;;3.30;;
18425;SDS011;9340;48.756;9.226;2023-07-31T08:43:26;10.68;;;4.32;;
18425;SDS011;9340;48.756;9.226;2023-07-31T08:45:53;4.68;;;2.70;;
18425;SDS011;9340;48.756;9.226;2023-07-31T08:48:21;3.38;;;2.83;;
18425;SDS011;9340;48.756;9.226;2023-07-31T08:50:49;4.80;;;2.55;;
18425;SDS011;9340;48.756;9.226;2023-07-31T08:53:17;7.07;;;3.08;;
18425;SDS011;9340;48.756;9.226;2023-07-31T08:55:44;4.30;;;2.78;;
18425;SDS011;9340;48.756;9.226;2023-07-31T08:58:11;3.78;;;3.25;;
18425;SDS011;9340;48.756;9.226;2023-07-31T09:00:39;5.03;;;3.03;;
18425;SDS011;9340;48.756;9.226;2023-07-31T09:03:09;4.40;;;2.88;;
18425;SDS011;9340;48.756;9.226;2023-07-31T09:05:39;2.90;;;2.30;;
18425;SDS011;9340;48.756;9.226;2023-07-31T09:08:09;4.45;;;2.72;;
18425;SDS011;9340;48.756;9.226;2023-07-31T09:10:41;3.97;;;2.75;;
18425;SDS011;9340;48.756;9.226;2023-07-31T09:13:08;5.30;;;2.92;;
18425;SDS011;9340;48.756;9.226;2023-07-31T09:15:35;4.18;;;3.00;;
18425;SDS011;9340;48.756;9.226;2023-07-31T09:18:03;3.70;;;2.95;;
18425;SDS011;9340;48.756;9.226;2023-07-31T09:20:30;4.18;;;2.97;;
18425;SDS011;9340;48.756;9.226;2023-07-31T09:23:02;4.32;;;3.00;;
18425;SDS011;9340;48.756;9.226;2023-07-31T09:25:33;4.80;;;3.17;;
18425;SDS011;9340;48.756;9.226;2023-07-31T09:28:01;3.47;;;2.83;;
18425;SDS011;9340;48.756;9.226;2023-07-31T09:30:29;3.80;;;2.72;;
18425;SDS011;9340;48.756;9.226;2023-07-31T09:33:00;3.67;;;2.88;;
18425;SDS011;9340;48.756;9.226;2023-07-31T09:35:28;3.55;;;3.08;;
18425;SDS011;9340;48.756;9.226;2023-07-31T09:37:57;4.20;;;2.63;;
18425;SDS011;9340;48.756;9.226;2023-07-31T09:40:26;3.38;;;2.70;;
18425;SDS011;9340;48.756;9.226;2023-07-31T09:42:54;3.50;;;2.47;;
18425;SDS011;9340;48.756;9.226;2023-07-31T09:45:23;4.68;;;3.08;;
18425;SDS011;9340;48.756;9.226;2023-07-31T09:47:50;4.22;;;3.25;;
18425;SDS011;9340;48.756;9.226;2023-07-31T09:50:17;4.70;;;3.30;;
18425;SDS011;9340;48.756;9.226;2023-07-31T09:52:44;5.45;;;3.15;;
18425;SDS011;9340;48.756;9.226;2023-07-31T09:55:11;3.83;;;2.88;;
18425;SDS011;9340;48.756;9.226;2023-07-31T09:57:39;5.30;;;3.10;;
18425;SDS011;9340;48.756;9.226;2023-07-31T10:00:08;3.75;;;2.95;;
18425;SDS011;9340;48.756;9.226;2023-07-31T10:02:37;4.32;;;3.15;;
18425;SDS011;9340;48.756;9.226;2023-07-31T10:05:05;4.82;;;2.78;;
18425;SDS011;9340;48.756;9.226;2023-07-31T10:07:37;3.58;;;3.03;;
18425;SDS011;9340;48.756;9.226;2023-07-31T10:10:06;4.30;;;2.85;;
18425;SDS011;9340;48.756;9.226;2023-07-31T10:12:34;4.68;;;3.22;;
18425;SDS011;9340;48.756;9.226;2023-07-31T10:15:02;4.10;;;3.03;;
18425;SDS011;9340;48.756;9.226;2023-07-31T10:17:29;4.70;;;3.50;;
18425;SDS011;9340;48.756;9.226;2023-07-31T10:19:58;6.05;;;3.58;;
18425;SDS011;9340;48.756;9.226;2023-07-31T10:22:27;4.65;;;3.33;;
18425;SDS011;9340;48.756;9.226;2023-07-31T10:24:55;5.53;;;3.83;;
18425;SDS011;9340;48.756;9.226;2023-07-31T10:27:24;4.70;;;2.97;;
18425;SDS011;9340;48.756;9.226;2023-07-31T10:29:51;6.00;;;3.20;;
18425;SDS011;9340;48.756;9.226;2023-07-31T10:32:19;3.78;;;3.03;;
18425;SDS011;9340;48.756;9.226;2023-07-31T10:34:47;3.97;;;3.28;;
18425;SDS011;9340;48.756;9.226;2023-07-31T10:37:26;4.13;;;3.42;;
18425;SDS011;9340;48.756;9.226;2023-07-31T10:39:58;4.70;;;3.10;;
18425;SDS011;9340;48.756;9.226;2023-07-31T10:42:30;4.78;;;3.13;;
18425;SDS011;9340;48.756;9.226;2023-07-31T10:44:59;3.70;;;2.95;;
18425;SDS011;9340;48.756;9.226;2023-07-31T10:47:27;4.43;;;3.25;;
18425;SDS011;9340;48.756;9.226;2023-07-31T10:52:42;4.97;;;3.00;;
18425;SDS011;9340;48.756;9.226;2023-07-31T10:55:14;4.30;;;3.15;;
18425;SDS011;9340;48.756;9.226;2023-07-31T10:57:48;4.10;;;3.17;;
18425;SDS011;9340;48.756;9.226;2023-07-31T11:00:18;5.43;;;3.40;;
18425;SDS011;9340;48.756;9.226;2023-07-31T11:02:55;3.70;;;3.03;;
18425;SDS011;9340;48.756;9.226;2023-07-31T11:08:14;4.63;;;3.22;;
18425;SDS011;9340;48.756;9.226;2023-07-31T11:10:43;4.85;;;2.80;;
18425;SDS011;9340;48.756;9.226;2023-07-31T11:13:11;4.82;;;3.47;;
18425;SDS011;9340;48.756;9.226;2023-07-31T11:15:38;4.93;;;3.53;;
18425;SDS011;9340;48.756;9.226;2023-07-31T11:18:04;5.18;;;3.30;;
18425;SDS011;9340;48.756;9.226;2023-07-31T11:20:33;5.55;;;3.58;;
18425;SDS011;9340;48.756;9.226;2023-07-31T11:23:01;4.65;;;3.25;;
18425;SDS011;9340;48.756;9.226;2023-07-31T11:25:30;5.63;;;3.60;;
18425;SDS011;9340;48.756;9.226;2023-07-31T11:27:57;6.15;;;3.53;;
18425;SDS011;9340;48.756;9.226;2023-07-31T11:30:28;5.30;;;3.55;;
18425;SDS011;9340;48.756;9.226;2023-07-31T11:32:54;5.07;;;3.20;;
18425;SDS011;9340;48.756;9.226;2023-07-31T11:35:21;4.07;;;2.90;;
18425;SDS011;9340;48.756;9.226;2023-07-31T11:37:48;4.88;;;3.10;;
18425;SDS011;9340;48.756;9.226;2023-07-31T11:40:15;3.47;;;2.83;;
18425;SDS011;9340;48.756;9.226;2023-07-31T11:42:43;5.15;;;3.28;;
18425;SDS011;9340;48.756;9.226;2023-07-31T11:45:10;5.00;;;3.33;;
18425;SDS011;9340;48.756;9.226;2023-07-31T11:47:37;5.03;;;3.08;;
18425;SDS011;9340;48.756;9.226;2023-07-31T11:50:05;4.15;;;3.17;;
18425;SDS011;9340;48.756;9.226;2023-07-31T11:52:36;4.78;;;3.08;;
18425;SDS011;9340;48.756;9.226;2023-07-31T11:55:06;4.00;;;2.97;;
18425;SDS011;9340;48.756;9.226;2023-07-31T11:57:36;3.38;;;3.03;;
18425;SDS011;9340;48.756;9.226;2023-07-31T12:00:06;3.13;;;2.80;;
18425;SDS011;9340;48.756;9.226;2023-07-31T12:02:34;5.22;;;3.45;;
18425;SDS011;9340;48.756;9.226;2023-07-31T12:05:02;4.90;;;2.97;;
18425;SDS011;9340;48.756;9.226;2023-07-31T12:07:42;4.05;;;3.33;;
18425;SDS011;9340;48.756;9.226;2023-07-31T12:10:21;4.55;;;3.42;;
18425;SDS011;9340;48.756;9.226;2023-07-31T12:12:56;3.63;;;3.30;;
18425;SDS011;9340;48.756;9.226;2023-07-31T12:15:33;6.00;;;3.35;;
18425;SDS011;9340;48.756;9.226;2023-07-31T12:18:03;9.40;;;3.80;;
18425;SDS011;9340;48.756;9.226;2023-07-31T12:20:31;4.38;;;3.42;;
18425;SDS011;9340;48.756;9.226;2023-07-31T12:22:59;4.40;;;3.03;;
18425;SDS011;9340;48.756;9.226;2023-07-31T12:25:29;4.78;;;3.40;;
18425;SDS011;9340;48.756;9.226;2023-07-31T12:27:56;4.00;;;3.58;;
18425;SDS011;9340;48.756;9.226;2023-07-31T12:30:26;3.88;;;3.10;;
18425;SDS011;9340;48.756;9.226;2023-07-31T12:32:55;4.65;;;3.20;;
18425;SDS011;9340;48.756;9.226;2023-07-31T12:35:22;3.75;;;3.20;;
18425;SDS011;9340;48.756;9.226;2023-07-31T12:37:49;4.65;;;3.40;;
18425;SDS011;9340;48.756;9.226;2023-07-31T12:40:16;4.30;;;3.70;;
18425;SDS011;9340;48.756;9.226;2023-07-31T12:42:42;4.22;;;3.28;;
18425;SDS011;9340;48.756;9.226;2023-07-31T12:45:09;5.03;;;3.63;;
18425;SDS011;9340;48.756;9.226;2023-07-31T12:47:36;4.10;;;3.70;;
18425;SDS011;9340;48.756;9.226;2023-07-31T12:50:04;4.40;;;2.95;;
18425;SDS011;9340;48.756;9.226;2023-07-31T12:52:32;4.40;;;3.30;;
18425;SDS011;9340;48.756;9.226;2023-07-31T12:54:58;4.75;;;3.60;;
18425;SDS011;9340;48.756;9.226;2023-07-31T12:57:25;9.10;;;3.67;;
18425;SDS011;9340;48.756;9.226;2023-07-31T12:59:52;4.13;;;3.13;;
18425;SDS011;9340;48.756;9.226;2023-07-31T13:02:18;6.00;;;3.40;;
18425;SDS011;9340;48.756;9.226;2023-07-31T13:04:45;3.05;;;2.75;;
18425;SDS011;9340;48.756;9.226;2023-07-31T13:07:13;4.00;;;3.20;;
18425;SDS011;9340;48.756;9.226;2023-07-31T13:09:39;4.72;;;3.25;;
18425;SDS011;9340;48.756;9.226;2023-07-31T13:12:06;5.05;;;3.47;;
18425;SDS011;9340;48.756;9.226;2023-07-31T13:14:33;3.45;;;3.10;;
18425;SDS011;9340;48.756;9.226;2023-07-31T13:17:00;4.57;;;3.17;;
18425;SDS011;9340;48.756;9.226;2023-07-31T13:19:27;3.97;;;3.05;;
18425;SDS011;9340;48.756;9.226;2023-07-31T13:21:53;5.05;;;3.72;;
18425;SDS011;9340;48.756;9.226;2023-07-31T13:24:21;3.83;;;3.10;;
18425;SDS011;9340;48.756;9.226;2023-07-31T13:26:48;3.72;;;2.95;;
18425;SDS011;9340;48.756;9.226;2023-07-31T13:29:15;4.38;;;3.25;;
18425;SDS011;9340;48.756;9.226;2023-07-31T13:31:41;3.22;;;2.92;;
18425;SDS011;9340;48.756;9.226;2023-07-31T13:34:08;5.40;;;3.20;;
18425;SDS011;9340;48.756;9.226;2023-07-31T13:36:35;4.65;;;3.10;;
18425;SDS011;9340;48.756;9.226;2023-07-31T13:39:02;4.00;;;3.17;;
18425;SDS011;9340;48.756;9.226;2023-07-31T13:41:30;4.60;;;3.33;;
18425;SDS011;9340;48.756;9.226;2023-07-31T13:43:57;6.32;;;3.67;;
18425;SDS011;9340;48.756;9.226;2023-07-31T13:46:23;5.15;;;3.22;;
18425;SDS011;9340;48.756;9.226;2023-07-31T13:48:50;4.47;;;3.63;;
18425;SDS011;9340;48.756;9.226;2023-07-31T13:51:19;3.65;;;3.03;;
18425;SDS011;9340;48.756;9.226;2023-07-31T13:53:46;3.33;;;3.03;;
18425;SDS011;9340;48.756;9.226;2023-07-31T13:56:13;4.13;;;3.40;;
18425;SDS011;9340;48.756;9.226;2023-07-31T13:58:41;4.15;;;3.22;;
18425;SDS011;9340;48.756;9.226;2023-07-31T14:01:07;4.53;;;3.05;;
18425;SDS011;9340;48.756;9.226;2023-07-31T14:03:34;4.90;;;3.80;;
18425;SDS011;9340;48.756;9.226;2023-07-31T14:06:01;5.70;;;3.60;;
18425;SDS011;9340;48.756;9.226;2023-07-31T14:08:28;3.55;;;2.72;;
18425;SDS011;9340;48.756;9.226;2023-07-31T14:10:55;3.10;;;2.80;;
18425;SDS011;9340;48.756;9.226;2023-07-31T14:13:22;4.65;;;3.25;;
18425;SDS011;9340;48.756;9.226;2023-07-31T14:15:50;4.97;;;3.40;;
18425;SDS011;9340;48.756;9.226;2023-07-31T14:18:17;5.13;;;3.67;;
18425;SDS011;9340;48.756;9.226;2023-07-31T14:20:44;4.97;;;3.92;;
18425;SDS011;9340;48.756;9.226;2023-07-31T14:23:10;6.43;;;3.78;;
18425;SDS011;9340;48.756;9.226;2023-07-31T14:25:37;4.82;;;4.00;;
18425;SDS011;9340;48.756;9.226;2023-07-31T14:28:04;4.25;;;3.33;;
18425;SDS011;9340;48.756;9.226;2023-07-31T14:30:30;4.72;;;3.72;;
18425;SDS011;9340;48.756;9.226;2023-07-31T14:32:58;3.88;;;3.08;;
18425;SDS011;9340;48.756;9.226;2023-07-31T14:35:27;3.75;;;3.30;;
18425;SDS011;9340;48.756;9.226;2023-07-31T14:37:53;4.13;;;3.10;;
18425;SDS011;9340;48.756;9.226;2023-07-31T14:40:20;4.25;;;3.50;;
18425;SDS011;9340;48.756;9.226;2023-07-31T14:42:47;4.75;;;3.38;;
18425;SDS011;9340;48.756;9.226;2023-07-31T14:45:14;6.00;;;3.60;;
18425;SDS011;9340;48.756;9.226;2023-07-31T14:47:40;3.88;;;3.00;;
18425;SDS011;9340;48.756;9.226;2023-07-31T14:50:09;5.07;;;3.83;;
18425;SDS011;9340;48.756;9.226;2023-07-31T14:52:36;4.57;;;3.65;;
18425;SDS011;9340;48.756;9.226;2023-07-31T14:55:03;3.45;;;2.83;;
18425;SDS011;9340;48.756;9.226;2023-07-31T14:57:30;4.97;;;3.70;;
18425;SDS011;9340;48.756;9.226;2023-07-31T14:59:57;4.28;;;3.38;;
18425;SDS011;9340;48.756;9.226;2023-07-31T15:02:24;3.63;;;3.30;;
18425;SDS011;9340;48.756;9.226;2023-07-31T15:04:52;4.70;;;3.28;;
18425;SDS011;9340;48.756;9.226;2023-07-31T15:07:20;4.68;;;3.53;;
18425;SDS011;9340;48.756;9.226;2023-07-31T15:09:47;5.20;;;3.70;;
18425;SDS011;9340;48.756;9.226;2023-07-31T15:12:13;4.78;;;3.33;;
18425;SDS011;9340;48.756;9.226;2023-07-31T15:14:40;4.50;;;3.53;;
18425;SDS011;9340;48.756;9.226;2023-07-31T15:17:07;3.92;;;3.35;;
18425;SDS011;9340;48.756;9.226;2023-07-31T15:19:33;3.38;;;3.08;;
18425;SDS011;9340;48.756;9.226;2023-07-31T15:22:01;4.50;;;3.05;;
18425;SDS011;9340;48.756;9.226;2023-07-31T15:24:29;3.92;;;3.30;;